sensor_id;sensor_type;location;lat;lon;timestamp;pressure;altitude;pressure_sealevel;temperature;humidity
55757;BME280;41676;44.610;44.078;2023-08-24T00:01:51;100008.69;;;22.56;57.74
55757;BME280;41676;44.610;44.078;2023-08-24T00:06:52;99961.63;;;22.14;57.05
55757;BME280;41676;44.610;44.078;2023-08-24T00:11:53;100027.13;;;22.32;57.28
55757;BME280;41676;44.610;44.078;2023-08-24T00:16:53;100002.91;;;22.04;57.50
55757;BME280;41676;44.610;44.078;2023-08-24T00:21:54;100011.03;;;22.04;56.90
55757;BME280;41676;44.610;44.078;2023-08-24T00:26:55;100018.34;;;21.81;57.33
55757;BME280;41676;44.610;44.078;2023-08-24T00:31:56;100011.34;;;21.63;57.94
55757;BME280;41676;44.610;44.078;2023-08-24T00:36:57;99959.44;;;21.11;58.30
55757;BME280;41676;44.610;44.078;2023-08-24T00:41:58;99963.06;;;21.00;58.96
55757;BME280;41676;44.610;44.078;2023-08-24T00:46:59;99901.03;;;20.54;58.95
55757;BME280;41676;44.610;44.078;2023-08-24T00:52:01;99954.56;;;20.74;59.30
55757;BME280;41676;44.610;44.078;2023-08-24T00:57:01;100041.97;;;21.18;59.30
55757;BME280;41676;44.610;44.078;2023-08-24T01:02:02;99966.38;;;20.73;59.18
55757;BME280;41676;44.610;44.078;2023-08-24T01:07:03;100037.47;;;21.24;59.06
55757;BME280;41676;44.610;44.078;2023-08-24T01:12:20;100022.31;;;21.23;59.34
55757;BME280;41676;44.610;44.078;2023-08-24T01:17:27;100037.38;;;21.19;59.47
55757;BME280;41676;44.610;44.078;2023-08-24T01:28:12;100053.00;;;21.34;58.91
55757;BME280;41676;44.610;44.078;2023-08-24T01:33:14;100050.88;;;21.02;59.87
55757;BME280;41676;44.610;44.078;2023-08-24T01:38:15;100047.19;;;21.08;59.61
55757;BME280;41676;44.610;44.078;2023-08-24T01:43:18;100054.78;;;20.94;60.31
55757;BME280;41676;44.610;44.078;2023-08-24T01:48:21;100057.78;;;20.81;60.31
55757;BME280;41676;44.610;44.078;2023-08-24T01:53:22;100032.44;;;20.54;60.78
55757;BME280;41676;44.610;44.078;2023-08-24T01:58:23;100046.03;;;20.59;60.75
55757;BME280;41676;44.610;44.078;2023-08-24T02:03:24;100043.00;;;20.55;60.54
55757;BME280;41676;44.610;44.078;2023-08-24T02:08:25;100052.00;;;20.49;60.93
55757;BME280;41676;44.610;44.078;2023-08-24T02:13:26;100067.16;;;20.62;61.15
55757;BME280;41676;44.610;44.078;2023-08-24T04:12:53;100129.19;;;27.12;42.78
55757;BME280;41676;44.610;44.078;2023-08-24T04:17:54;100082.41;;;27.34;43.00
55757;BME280;41676;44.610;44.078;2023-08-24T04:22:54;100087.94;;;28.11;42.47
55757;BME280;41676;44.610;44.078;2023-08-24T04:27:56;100125.28;;;29.01;41.23
55757;BME280;41676;44.610;44.078;2023-08-24T04:32:57;100084.97;;;28.93;40.13
55757;BME280;41676;44.610;44.078;2023-08-24T04:38:00;100122.13;;;29.32;39.60
55757;BME280;41676;44.610;44.078;2023-08-24T04:43:00;100129.25;;;29.66;38.99
55757;BME280;41676;44.610;44.078;2023-08-24T04:48:01;100045.53;;;29.32;38.45
55757;BME280;41676;44.610;44.078;2023-08-24T04:53:03;100118.34;;;29.93;37.51
55757;BME280;41676;44.610;44.078;2023-08-24T04:58:04;100121.78;;;29.52;37.74
55757;BME280;41676;44.610;44.078;2023-08-24T05:03:05;100115.44;;;29.05;39.39
55757;BME280;41676;44.610;44.078;2023-08-24T05:08:06;100126.41;;;29.00;39.01
55757;BME280;41676;44.610;44.078;2023-08-24T05:13:10;100109.34;;;28.89;39.36
55757;BME280;41676;44.610;44.078;2023-08-24T05:18:11;100120.38;;;29.03;38.78
55757;BME280;41676;44.610;44.078;2023-08-24T05:23:11;100120.81;;;29.10;38.55
55757;BME280;41676;44.610;44.078;2023-08-24T05:28:12;100113.78;;;29.23;39.26
55757;BME280;41676;44.610;44.078;2023-08-24T05:33:13;100107.50;;;29.23;38.26
55757;BME280;41676;44.610;44.078;2023-08-24T05:38:15;100112.72;;;29.05;37.99
55757;BME280;41676;44.610;44.078;2023-08-24T05:43:16;100112.53;;;29.16;38.01
55757;BME280;41676;44.610;44.078;2023-08-24T05:48:16;100114.88;;;29.41;37.46
55757;BME280;41676;44.610;44.078;2023-08-24T05:53:17;100097.66;;;29.54;37.37
55757;BME280;41676;44.610;44.078;2023-08-24T05:58:18;100119.84;;;29.72;37.12
55757;BME280;41676;44.610;44.078;2023-08-24T06:03:18;100108.47;;;29.65;37.10
55757;BME280;41676;44.610;44.078;2023-08-24T06:08:20;100108.75;;;29.63;36.78
55757;BME280;41676;44.610;44.078;2023-08-24T06:13:20;100069.63;;;29.63;37.39
55757;BME280;41676;44.610;44.078;2023-08-24T06:18:21;100043.94;;;29.58;36.31
55757;BME280;41676;44.610;44.078;2023-08-24T06:23:22;100097.97;;;29.86;36.24
55757;BME280;41676;44.610;44.078;2023-08-24T06:28:22;100060.63;;;29.76;35.98
55757;BME280;41676;44.610;44.078;2023-08-24T06:33:33;100116.97;;;30.37;35.97
55757;BME280;41676;44.610;44.078;2023-08-24T06:38:34;100055.69;;;29.92;35.31
55757;BME280;41676;44.610;44.078;2023-08-24T06:43:35;100045.50;;;30.06;35.44
55757;BME280;41676;44.610;44.078;2023-08-24T06:48:38;100083.75;;;30.53;35.74
55757;BME280;41676;44.610;44.078;2023-08-24T06:53:39;100100.47;;;30.79;34.46
55757;BME280;41676;44.610;44.078;2023-08-24T06:58:40;100087.59;;;30.79;34.49
55757;BME280;41676;44.610;44.078;2023-08-24T07:03:41;100103.69;;;30.95;34.30
55757;BME280;41676;44.610;44.078;2023-08-24T07:08:42;100016.72;;;30.59;34.23
55757;BME280;41676;44.610;44.078;2023-08-24T07:13:42;100021.78;;;30.65;33.97
55757;BME280;41676;44.610;44.078;2023-08-24T07:18:43;100079.78;;;30.95;33.29
55757;BME280;41676;44.610;44.078;2023-08-24T07:23:44;100092.78;;;31.03;32.91
55757;BME280;41676;44.610;44.078;2023-08-24T07:28:45;100079.56;;;31.28;32.89
55757;BME280;41676;44.610;44.078;2023-08-24T07:33:45;100071.06;;;31.38;32.66
55757;BME280;41676;44.610;44.078;2023-08-24T07:38:46;100070.25;;;31.60;32.28
55757;BME280;41676;44.610;44.078;2023-08-24T07:43:48;100070.81;;;31.79;31.99
55757;BME280;41676;44.610;44.078;2023-08-24T07:48:48;100073.00;;;31.60;32.13
55757;BME280;41676;44.610;44.078;2023-08-24T07:53:50;100058.75;;;31.58;31.81
55757;BME280;41676;44.610;44.078;2023-08-24T07:58:52;100063.97;;;31.99;32.02
55757;BME280;41676;44.610;44.078;2023-08-24T08:03:53;100058.25;;;31.47;31.19
55757;BME280;41676;44.610;44.078;2023-08-24T08:08:53;100065.25;;;31.62;31.57
55757;BME280;41676;44.610;44.078;2023-08-24T08:13:54;100052.81;;;31.65;30.97
55757;BME280;41676;44.610;44.078;2023-08-24T08:18:55;100055.38;;;31.61;30.67
55757;BME280;41676;44.610;44.078;2023-08-24T08:23:56;100070.69;;;31.84;30.94
55757;BME280;41676;44.610;44.078;2023-08-24T08:28:57;100058.38;;;32.13;30.90
55757;BME280;41676;44.610;44.078;2023-08-24T08:33:57;100018.75;;;32.05;31.22
55757;BME280;41676;44.610;44.078;2023-08-24T08:38:58;100040.25;;;32.12;29.78
55757;BME280;41676;44.610;44.078;2023-08-24T08:44:04;100052.22;;;32.16;30.18
55757;BME280;41676;44.610;44.078;2023-08-24T08:49:06;99992.16;;;31.83;30.00
55757;BME280;41676;44.610;44.078;2023-08-24T08:54:08;100044.28;;;32.15;29.96
55757;BME280;41676;44.610;44.078;2023-08-24T08:59:11;100050.59;;;32.15;29.40
55757;BME280;41676;44.610;44.078;2023-08-24T09:04:15;100047.72;;;32.20;29.48
55757;BME280;41676;44.610;44.078;2023-08-24T09:09:16;100049.97;;;32.27;29.74
55757;BME280;41676;44.610;44.078;2023-08-24T09:14:17;99986.25;;;31.99;29.33
55757;BME280;41676;44.610;44.078;2023-08-24T09:19:17;99967.16;;;31.94;29.03
55757;BME280;41676;44.610;44.078;2023-08-24T09:24:29;100017.06;;;32.53;28.61
55757;BME280;41676;44.610;44.078;2023-08-24T09:29:36;100035.16;;;32.80;31.46
55757;BME280;41676;44.610;44.078;2023-08-24T09:34:37;100028.06;;;32.88;29.90
55757;BME280;41676;44.610;44.078;2023-08-24T09:39:38;100010.91;;;32.73;29.80
55757;BME280;41676;44.610;44.078;2023-08-24T09:44:43;100001.38;;;32.71;29.68
55757;BME280;41676;44.610;44.078;2023-08-24T09:49:45;100007.03;;;32.74;29.39
55757;BME280;41676;44.610;44.078;2023-08-24T09:54:47;100022.88;;;33.12;29.21
55757;BME280;41676;44.610;44.078;2023-08-24T09:59:48;100014.31;;;32.62;29.15
55757;BME280;41676;44.610;44.078;2023-08-24T10:04:52;99998.47;;;32.59;29.37
55757;BME280;41676;44.610;44.078;2023-08-24T10:15:01;100010.91;;;32.56;29.08
55757;BME280;41676;44.610;44.078;2023-08-24T10:20:14;99995.84;;;32.45;29.20
55757;BME280;41676;44.610;44.078;2023-08-24T10:25:16;100004.25;;;32.48;28.96
55757;BME280;41676;44.610;44.078;2023-08-24T10:30:17;100006.06;;;32.62;28.95
55757;BME280;41676;44.610;44.078;2023-08-24T10:35:21;99993.75;;;32.77;28.99
55757;BME280;41676;44.610;44.078;2023-08-24T10:40:33;99958.97;;;32.72;29.40
55757;BME280;41676;44.610;44.078;2023-08-24T10:45:56;99984.03;;;32.88;28.91
55757;BME280;41676;44.610;44.078;2023-08-24T10:51:16;99975.28;;;32.86;29.60
55757;BME280;41676;44.610;44.078;2023-08-24T10:56:20;99980.09;;;33.24;28.95
55757;BME280;41676;44.610;44.078;2023-08-24T11:01:21;99975.59;;;33.10;28.59
55757;BME280;41676;44.610;44.078;2023-08-24T11:06:24;99953.91;;;33.09;28.29
55757;BME280;41676;44.610;44.078;2023-08-24T11:11:26;99909.56;;;33.02;27.99
55757;BME280;41676;44.610;44.078;2023-08-24T11:16:43;99966.44;;;33.36;28.65
55757;BME280;41676;44.610;44.078;2023-08-24T11:21:46;99956.13;;;33.24;28.31
55757;BME280;41676;44.610;44.078;2023-08-24T11:26:48;99950.81;;;33.10;28.39
55757;BME280;41676;44.610;44.078;2023-08-24T11:31:51;99947.09;;;33.15;28.39
55757;BME280;41676;44.610;44.078;2023-08-24T11:36:52;99922.66;;;32.96;28.42
55757;BME280;41676;44.610;44.078;2023-08-24T11:42:01;99894.72;;;32.85;28.72
55757;BME280;41676;44.610;44.078;2023-08-24T11:47:03;99943.56;;;32.97;28.14
55757;BME280;41676;44.610;44.078;2023-08-24T11:52:03;99935.59;;;33.13;28.48
55757;BME280;41676;44.610;44.078;2023-08-24T11:57:08;99945.28;;;33.19;27.41
55757;BME280;41676;44.610;44.078;2023-08-24T12:02:09;99918.78;;;32.97;27.66
55757;BME280;41676;44.610;44.078;2023-08-24T12:07:12;99924.47;;;32.92;27.88
55757;BME280;41676;44.610;44.078;2023-08-24T12:12:17;99924.59;;;33.13;27.96
55757;BME280;41676;44.610;44.078;2023-08-24T12:17:19;99848.16;;;32.71;27.70
55757;BME280;41676;44.610;44.078;2023-08-24T12:22:20;99914.72;;;33.12;27.69
55757;BME280;41676;44.610;44.078;2023-08-24T12:27:25;99917.97;;;32.96;27.44
55757;BME280;41676;44.610;44.078;2023-08-24T12:32:42;99902.31;;;32.88;27.51
55757;BME280;41676;44.610;44.078;2023-08-24T12:37:42;99921.22;;;33.07;27.52
55757;BME280;41676;44.610;44.078;2023-08-24T12:42:43;99900.13;;;33.11;27.84
55757;BME280;41676;44.610;44.078;2023-08-24T12:47:44;99901.31;;;32.93;28.14
55757;BME280;41676;44.610;44.078;2023-08-24T12:52:45;99898.31;;;32.68;28.42
55757;BME280;41676;44.610;44.078;2023-08-24T12:57:45;99878.38;;;32.80;28.60
55757;BME280;41676;44.610;44.078;2023-08-24T13:02:46;99890.19;;;32.81;27.94
55757;BME280;41676;44.610;44.078;2023-08-24T13:07:47;99812.97;;;32.21;28.24
55757;BME280;41676;44.610;44.078;2023-08-24T13:12:48;99864.84;;;32.58;27.89
55757;BME280;41676;44.610;44.078;2023-08-24T13:17:49;99886.66;;;32.63;28.18
55757;BME280;41676;44.610;44.078;2023-08-24T13:22:49;99822.19;;;32.25;27.88
55757;BME280;41676;44.610;44.078;2023-08-24T13:27:50;99873.72;;;32.63;28.23
55757;BME280;41676;44.610;44.078;2023-08-24T13:32:51;99901.56;;;32.53;28.16
55757;BME280;41676;44.610;44.078;2023-08-24T13:37:52;99910.59;;;32.36;28.12
55757;BME280;41676;44.610;44.078;2023-08-24T13:42:52;99779.06;;;31.65;28.00
55757;BME280;41676;44.610;44.078;2023-08-24T13:47:53;99896.41;;;32.43;28.14
55757;BME280;41676;44.610;44.078;2023-08-24T13:52:54;99899.94;;;32.35;27.79
55757;BME280;41676;44.610;44.078;2023-08-24T13:57:56;99904.81;;;32.29;28.42
55757;BME280;41676;44.610;44.078;2023-08-24T14:02:57;99898.00;;;32.18;28.50
55757;BME280;41676;44.610;44.078;2023-08-24T14:07:57;99896.25;;;32.22;29.07
55757;BME280;41676;44.610;44.078;2023-08-24T14:12:58;99900.44;;;32.02;29.10
55757;BME280;41676;44.610;44.078;2023-08-24T14:17:59;99898.63;;;31.97;29.24
55757;BME280;41676;44.610;44.078;2023-08-24T14:23:00;99901.81;;;31.73;29.42
55757;BME280;41676;44.610;44.078;2023-08-24T14:28:02;99815.75;;;31.12;29.94
55757;BME280;41676;44.610;44.078;2023-08-24T14:33:03;99890.47;;;31.49;29.72
55757;BME280;41676;44.610;44.078;2023-08-24T14:38:04;99893.59;;;31.33;30.13
55757;BME280;41676;44.610;44.078;2023-08-24T14:43:05;99861.63;;;30.89;30.82
55757;BME280;41676;44.610;44.078;2023-08-24T14:48:05;99879.50;;;30.55;31.20
55757;BME280;41676;44.610;44.078;2023-08-24T14:53:06;99893.94;;;30.47;31.68
55757;BME280;41676;44.610;44.078;2023-08-24T14:58:07;99908.38;;;30.39;31.37
55757;BME280;41676;44.610;44.078;2023-08-24T15:03:08;99904.69;;;30.21;31.77
55757;BME280;41676;44.610;44.078;2023-08-24T15:08:09;99852.28;;;29.64;33.06
55757;BME280;41676;44.610;44.078;2023-08-24T15:13:11;99896.06;;;29.77;32.90
55757;BME280;41676;44.610;44.078;2023-08-24T15:18:12;99836.28;;;29.16;33.12
55757;BME280;41676;44.610;44.078;2023-08-24T15:23:28;99899.81;;;29.40;33.94
55757;BME280;41676;44.610;44.078;2023-08-24T15:29:20;99930.72;;;29.27;34.03
55757;BME280;41676;44.610;44.078;2023-08-24T15:33:56;99893.75;;;28.83;34.26
55757;BME280;41676;44.610;44.078;2023-08-24T15:38:57;99893.28;;;28.62;34.17
55757;BME280;41676;44.610;44.078;2023-08-24T15:43:57;99897.00;;;28.52;34.31
55757;BME280;41676;44.610;44.078;2023-08-24T15:48:58;99807.44;;;27.79;34.36
55757;BME280;41676;44.610;44.078;2023-08-24T15:53:59;99926.16;;;28.38;34.91
55757;BME280;41676;44.610;44.078;2023-08-24T15:59:01;99794.34;;;27.38;35.51
55757;BME280;41676;44.610;44.078;2023-08-24T16:04:02;99926.22;;;27.95;36.55
55757;BME280;41676;44.610;44.078;2023-08-24T16:09:02;99868.56;;;27.35;36.80
55757;BME280;41676;44.610;44.078;2023-08-24T16:14:04;99942.03;;;27.50;38.44
55757;BME280;41676;44.610;44.078;2023-08-24T16:19:05;99899.50;;;26.96;38.54
55757;BME280;41676;44.610;44.078;2023-08-24T16:24:06;99959.59;;;27.15;38.47
55757;BME280;41676;44.610;44.078;2023-08-24T16:29:09;99886.13;;;26.65;37.97
55757;BME280;41676;44.610;44.078;2023-08-24T16:34:09;99895.78;;;26.52;37.82
55757;BME280;41676;44.610;44.078;2023-08-24T16:39:11;99913.81;;;26.43;37.93
55757;BME280;41676;44.610;44.078;2023-08-24T16:44:12;99941.28;;;26.52;38.36
55757;BME280;41676;44.610;44.078;2023-08-24T16:49:13;99991.06;;;26.62;38.30
55757;BME280;41676;44.610;44.078;2023-08-24T16:54:13;99965.66;;;26.28;38.92
55757;BME280;41676;44.610;44.078;2023-08-24T16:59:14;100005.06;;;26.35;39.93
55757;BME280;41676;44.610;44.078;2023-08-24T17:04:15;99920.44;;;25.72;39.10
55757;BME280;41676;44.610;44.078;2023-08-24T17:09:16;99997.06;;;26.05;38.46
55757;BME280;41676;44.610;44.078;2023-08-24T17:14:17;100000.66;;;26.00;38.54
55757;BME280;41676;44.610;44.078;2023-08-24T17:19:17;100009.63;;;25.95;38.10
55757;BME280;41676;44.610;44.078;2023-08-24T17:24:18;100014.25;;;25.95;38.01
55757;BME280;41676;44.610;44.078;2023-08-24T17:29:19;99999.06;;;25.84;37.72
55757;BME280;41676;44.610;44.078;2023-08-24T17:34:20;100016.44;;;25.93;37.17
55757;BME280;41676;44.610;44.078;2023-08-24T17:39:21;100035.75;;;25.96;36.96
55757;BME280;41676;44.610;44.078;2023-08-24T17:44:21;100025.72;;;25.92;37.10
55757;BME280;41676;44.610;44.078;2023-08-24T17:49:22;100020.03;;;25.83;37.19
55757;BME280;41676;44.610;44.078;2023-08-24T17:54:23;100004.50;;;25.73;37.10
55757;BME280;41676;44.610;44.078;2023-08-24T17:59:23;100015.91;;;25.81;37.23
55757;BME280;41676;44.610;44.078;2023-08-24T18:04:24;100020.81;;;25.84;36.42
55757;BME280;41676;44.610;44.078;2023-08-24T18:09:25;100007.75;;;25.76;36.30
55757;BME280;41676;44.610;44.078;2023-08-24T18:14:26;100009.94;;;25.79;36.03
55757;BME280;41676;44.610;44.078;2023-08-24T18:19:27;100029.28;;;25.82;35.26
55757;BME280;41676;44.610;44.078;2023-08-24T18:24:27;99970.88;;;25.39;35.89
55757;BME280;41676;44.610;44.078;2023-08-24T18:29:28;100019.25;;;25.52;36.03
55757;BME280;41676;44.610;44.078;2023-08-24T18:34:29;100031.75;;;25.48;35.51
55757;BME280;41676;44.610;44.078;2023-08-24T18:39:30;100030.69;;;25.39;35.69
55757;BME280;41676;44.610;44.078;2023-08-24T18:44:31;100009.47;;;25.05;35.64
55757;BME280;41676;44.610;44.078;2023-08-24T18:49:31;100011.91;;;25.12;36.07
55757;BME280;41676;44.610;44.078;2023-08-24T18:54:32;99952.41;;;24.64;36.19
55757;BME280;41676;44.610;44.078;2023-08-24T18:59:33;99985.56;;;24.71;36.96
55757;BME280;41676;44.610;44.078;2023-08-24T19:04:34;100000.50;;;24.64;37.31
55757;BME280;41676;44.610;44.078;2023-08-24T19:09:34;99962.91;;;24.35;37.18
55757;BME280;41676;44.610;44.078;2023-08-24T19:14:37;100021.94;;;24.70;37.43
55757;BME280;41676;44.610;44.078;2023-08-24T19:19:38;100022.75;;;24.71;36.19
55757;BME280;41676;44.610;44.078;2023-08-24T19:24:39;100001.00;;;24.55;35.88
55757;BME280;41676;44.610;44.078;2023-08-24T19:29:39;100000.19;;;24.45;36.38
55757;BME280;41676;44.610;44.078;2023-08-24T19:34:40;100024.84;;;24.33;37.98
55757;BME280;41676;44.610;44.078;2023-08-24T19:39:41;99988.03;;;23.84;39.29
55757;BME280;41676;44.610;44.078;2023-08-24T19:44:42;100007.00;;;23.84;40.27
55757;BME280;41676;44.610;44.078;2023-08-24T19:49:42;100009.38;;;23.71;41.91
55757;BME280;41676;44.610;44.078;2023-08-24T19:54:43;100004.88;;;23.49;42.66
55757;BME280;41676;44.610;44.078;2023-08-24T19:59:44;99973.44;;;23.11;42.88
55757;BME280;41676;44.610;44.078;2023-08-24T20:04:45;100016.66;;;23.28;43.78
55757;BME280;41676;44.610;44.078;2023-08-24T20:09:46;99994.78;;;23.02;44.84
55757;BME280;41676;44.610;44.078;2023-08-24T20:14:47;100014.16;;;23.21;44.73
55757;BME280;41676;44.610;44.078;2023-08-24T20:19:47;100015.09;;;23.37;44.68
55757;BME280;41676;44.610;44.078;2023-08-24T20:24:49;100025.44;;;23.45;45.10
55757;BME280;41676;44.610;44.078;2023-08-24T20:29:50;99967.75;;;23.12;45.04
55757;BME280;41676;44.610;44.078;2023-08-24T20:34:51;100024.81;;;23.33;46.05
55757;BME280;41676;44.610;44.078;2023-08-24T20:39:52;99987.53;;;22.81;47.06
55757;BME280;41676;44.610;44.078;2023-08-24T20:44:53;100034.59;;;23.01;47.82
55757;BME280;41676;44.610;44.078;2023-08-24T20:49:55;100020.25;;;23.01;48.92
55757;BME280;41676;44.610;44.078;2023-08-24T20:54:56;100028.31;;;22.96;48.82
55757;BME280;41676;44.610;44.078;2023-08-24T20:59:57;100009.44;;;22.79;49.32
55757;BME280;41676;44.610;44.078;2023-08-24T21:04:57;100017.25;;;22.75;49.62
55757;BME280;41676;44.610;44.078;2023-08-24T21:09:59;99983.97;;;22.48;50.66
55757;BME280;41676;44.610;44.078;2023-08-24T21:14:59;99999.09;;;22.71;50.27
55757;BME280;41676;44.610;44.078;2023-08-24T21:20:00;99962.72;;;22.62;51.06
55757;BME280;41676;44.610;44.078;2023-08-24T21:25:01;99957.81;;;22.59;51.14
55757;BME280;41676;44.610;44.078;2023-08-24T21:30:03;100004.28;;;22.77;50.89
55757;BME280;41676;44.610;44.078;2023-08-24T21:35:04;99940.53;;;22.32;52.10
55757;BME280;41676;44.610;44.078;2023-08-24T21:40:05;99989.97;;;22.55;52.58
55757;BME280;41676;44.610;44.078;2023-08-24T21:45:06;100001.31;;;22.52;53.18
55757;BME280;41676;44.610;44.078;2023-08-24T21:50:08;100017.97;;;22.39;53.01
55757;BME280;41676;44.610;44.078;2023-08-24T21:55:08;100014.53;;;22.21;53.13
55757;BME280;41676;44.610;44.078;2023-08-24T22:00:09;100014.00;;;22.02;54.38
55757;BME280;41676;44.610;44.078;2023-08-24T22:05:13;100008.78;;;21.96;54.21
55757;BME280;41676;44.610;44.078;2023-08-24T22:10:14;99938.56;;;21.40;54.09
55757;BME280;41676;44.610;44.078;2023-08-24T22:15:15;100023.09;;;21.74;54.12
55757;BME280;41676;44.610;44.078;2023-08-24T22:20:16;100008.31;;;21.60;53.61
55757;BME280;41676;44.610;44.078;2023-08-24T22:25:18;100009.06;;;21.38;54.11
55757;BME280;41676;44.610;44.078;2023-08-24T22:30:19;100027.34;;;21.48;54.64
55757;BME280;41676;44.610;44.078;2023-08-24T22:35:21;100022.41;;;21.45;55.25
55757;BME280;41676;44.610;44.078;2023-08-24T22:40:22;100007.84;;;21.46;55.59
55757;BME280;41676;44.610;44.078;2023-08-24T22:45:23;100013.47;;;21.28;55.69
55757;BME280;41676;44.610;44.078;2023-08-24T22:50:26;100026.06;;;21.56;55.25
55757;BME280;41676;44.610;44.078;2023-08-24T22:55:27;100000.13;;;21.04;55.17
55757;BME280;41676;44.610;44.078;2023-08-24T23:00:27;100003.41;;;20.89;55.44
55757;BME280;41676;44.610;44.078;2023-08-24T23:05:28;99967.91;;;20.52;55.67
55757;BME280;41676;44.610;44.078;2023-08-24T23:10:29;99995.13;;;20.50;55.83
55757;BME280;41676;44.610;44.078;2023-08-24T23:15:30;100025.00;;;20.61;55.95
55757;BME280;41676;44.610;44.078;2023-08-24T23:20:31;99964.72;;;20.26;56.02
55757;BME280;41676;44.610;44.078;2023-08-24T23:25:32;100017.19;;;20.59;55.49
55757;BME280;41676;44.610;44.078;2023-08-24T23:30:33;99995.84;;;20.46;56.00
55757;BME280;41676;44.610;44.078;2023-08-24T23:35:35;99932.38;;;19.86;56.65
55757;BME280;41676;44.610;44.078;2023-08-24T23:40:36;100023.53;;;20.01;56.90
55757;BME280;41676;44.610;44.078;2023-08-24T23:45:37;99990.34;;;19.72;57.11
55757;BME280;41676;44.610;44.078;2023-08-24T23:50:37;100016.09;;;19.68;57.75
55757;BME280;41676;44.610;44.078;2023-08-24T23:55:38;100014.34;;;19.73;58.35
